Time;durP1;ratioP1;P1;durP2;ratioP2;P2;SDS_P1;SDS_P2;PMS_P1;PMS_P2;Temp;Humidity;BMP_temperature;BMP_pressure;BME280_temperature;BME280_humidity;BME280_pressure;Samples;Min_cycle;Max_cycle;Signal;HPM_P1;HPM_P2
2022/05/18 00:01:41;;;;;;;5.20;2.35;;;10.30;99.90;;;;;;4953208;28;20082;-48
2022/05/18 00:04:06;;;;;;;4.93;2.30;;;10.30;99.90;;;;;;4953244;29;20059;-49
2022/05/18 00:06:32;;;;;;;4.80;2.50;;;10.30;99.90;;;;;;4943307;29;20127;-51
2022/05/18 00:08:58;;;;;;;6.05;2.20;;;10.30;99.90;;;;;;4934337;29;20039;-49
2022/05/18 00:11:24;;;;;;;7.03;2.80;;;10.10;99.90;;;;;;4933932;29;20111;-49
2022/05/18 00:13:52;;;;;;;6.88;3.20;;;9.90;99.90;;;;;;4933708;29;20135;-47
2022/05/18 00:16:21;;;;;;;6.65;2.45;;;10.00;99.90;;;;;;4932287;29;20486;-49
2022/05/18 00:18:47;;;;;;;6.45;2.70;;;10.00;99.90;;;;;;4933518;29;20239;-49
2022/05/18 00:21:13;;;;;;;7.68;2.40;;;9.90;99.90;;;;;;4933893;29;20762;-50
2022/05/18 00:23:39;;;;;;;8.93;2.58;;;9.80;99.90;;;;;;4916501;29;20380;-50
2022/05/18 00:26:06;;;;;;;6.82;2.80;;;9.70;99.90;;;;;;4933934;29;20039;-51
2022/05/18 00:28:33;;;;;;;6.43;2.80;;;9.80;99.90;;;;;;4933696;29;20082;-49
2022/05/18 00:30:59;;;;;;;8.25;2.60;;;9.60;99.90;;;;;;4933606;29;20056;-49
2022/05/18 00:33:25;;;;;;;9.95;3.53;;;9.60;99.90;;;;;;4933020;29;20487;-48
2022/05/18 00:35:51;;;;;;;11.00;3.20;;;9.60;99.90;;;;;;4933817;29;20031;-49
2022/05/18 00:38:16;;;;;;;8.68;2.97;;;9.50;99.90;;;;;;4933572;29;20068;-49
2022/05/18 00:40:47;;;;;;;6.28;2.25;;;9.40;99.90;;;;;;4933502;29;20042;-49
2022/05/18 00:43:19;;;;;;;8.20;3.53;;;9.30;99.90;;;;;;4933292;29;20063;-49
2022/05/18 00:45:45;;;;;;;5.38;2.20;;;9.10;99.90;;;;;;4933303;29;20035;-49
2022/05/18 00:48:11;;;;;;;6.05;2.75;;;9.10;99.90;;;;;;4933752;29;20031;-50
2022/05/18 00:50:39;;;;;;;11.85;2.80;;;9.00;99.90;;;;;;4933280;29;20782;-50
2022/05/18 00:53:10;;;;;;;7.78;2.88;;;8.90;99.90;;;;;;4933086;29;20032;-50
2022/05/18 00:55:40;;;;;;;6.25;3.17;;;8.90;99.90;;;;;;4933223;29;20028;-48
2022/05/18 00:58:24;;;;;;;6.90;2.88;;;8.90;99.90;;;;;;4930621;29;20031;-49
2022/05/18 01:00:51;;;;;;;5.82;2.50;;;8.90;99.90;;;;;;4933316;29;20028;-48
2022/05/18 01:03:24;;;;;;;7.32;2.42;;;8.90;99.90;;;;;;4933018;29;20074;-50
2022/05/18 01:05:59;;;;;;;8.15;2.20;;;8.80;99.90;;;;;;4933039;29;20564;-49
2022/05/18 01:08:49;;;;;;;7.50;3.10;;;8.70;99.90;;;;;;4932966;29;20076;-49
2022/05/18 01:11:15;;;;;;;5.88;2.60;;;8.60;99.90;;;;;;4933286;29;20378;-49
2022/05/18 01:13:41;;;;;;;8.82;3.20;;;8.60;99.90;;;;;;4932877;29;20031;-48
2022/05/18 01:16:07;;;;;;;6.70;2.80;;;8.70;99.90;;;;;;4933176;29;20423;-48
2022/05/18 01:18:33;;;;;;;5.82;2.35;;;8.70;99.90;;;;;;4932799;29;20115;-50
2022/05/18 01:20:59;;;;;;;11.13;2.70;;;8.60;99.90;;;;;;4933273;29;20274;-51
2022/05/18 01:23:30;;;;;;;10.25;3.65;;;8.60;99.90;;;;;;4932838;29;20487;-49
2022/05/18 01:26:21;;;;;;;5.93;2.97;;;8.40;99.90;;;;;;4932791;29;20095;-49
2022/05/18 01:28:56;;;;;;;8.45;3.50;;;8.50;99.90;;;;;;4932717;29;20034;-49
2022/05/18 01:31:58;;;;;;;9.50;3.50;;;8.50;99.90;;;;;;4932051;29;20039;-49
2022/05/18 01:34:29;;;;;;;9.70;3.13;;;8.50;99.90;;;;;;4932409;29;20626;-49
2022/05/18 01:36:55;;;;;;;8.18;3.38;;;8.40;99.90;;;;;;4932651;29;20038;-49
2022/05/18 01:39:46;;;;;;;6.78;3.45;;;8.30;99.90;;;;;;4932729;29;20040;-48
2022/05/18 01:42:27;;;;;;;7.82;2.88;;;8.20;99.90;;;;;;4932785;29;20424;-49
2022/05/18 01:44:56;;;;;;;8.77;3.65;;;8.20;99.90;;;;;;4932877;29;20405;-48
2022/05/18 01:47:22;;;;;;;6.85;3.65;;;8.10;99.90;;;;;;4915221;29;20027;-47
2022/05/18 01:49:51;;;;;;;7.57;3.33;;;8.10;99.90;;;;;;4932630;29;20038;-51
2022/05/18 01:52:17;;;;;;;7.90;3.17;;;8.00;99.90;;;;;;4932238;29;20032;-50
2022/05/18 01:54:47;;;;;;;6.00;2.70;;;7.80;99.90;;;;;;4932597;29;20028;-49
2022/05/18 01:57:14;;;;;;;7.85;2.72;;;7.80;99.90;;;;;;4932501;29;20035;-49
2022/05/18 01:59:40;;;;;;;5.65;2.72;;;7.90;99.90;;;;;;4932444;29;20032;-49
2022/05/18 02:02:10;;;;;;;5.83;2.27;;;7.90;99.90;;;;;;4932335;29;20046;-49
2022/05/18 02:04:36;;;;;;;6.32;2.33;;;7.90;99.90;;;;;;4932188;29;20313;-51
2022/05/18 02:07:03;;;;;;;10.90;2.95;;;8.00;99.90;;;;;;4932273;29;20066;-49
2022/05/18 02:09:29;;;;;;;6.18;2.25;;;8.00;99.90;;;;;;4932057;29;20075;-48
2022/05/18 02:11:55;;;;;;;7.80;2.97;;;8.00;99.90;;;;;;4932368;29;20036;-49
2022/05/18 02:14:22;;;;;;;5.70;2.30;;;8.00;99.90;;;;;;4931999;29;20032;-49
2022/05/18 02:16:49;;;;;;;12.68;1.90;;;8.00;99.90;;;;;;4932513;29;20034;-49
2022/05/18 02:19:16;;;;;;;6.97;2.40;;;8.10;99.90;;;;;;4931815;29;20071;-50
2022/05/18 02:21:42;;;;;;;7.70;2.47;;;8.10;99.90;;;;;;4932353;29;20444;-49
2022/05/18 02:24:08;;;;;;;7.20;1.92;;;8.10;99.90;;;;;;4914847;29;20028;-48
2022/05/18 02:26:34;;;;;;;5.35;2.13;;;8.10;99.90;;;;;;4932064;29;20499;-49
2022/05/18 02:28:59;;;;;;;5.10;1.83;;;8.20;99.90;;;;;;4932345;29;20035;-49
2022/05/18 02:31:25;;;;;;;6.88;2.03;;;8.10;99.90;;;;;;4931540;29;20369;-49
2022/05/18 02:33:51;;;;;;;9.88;2.45;;;8.00;99.90;;;;;;4931745;29;20031;-49
2022/05/18 02:36:17;;;;;;;6.82;2.10;;;7.90;99.90;;;;;;4915141;29;20032;-48
2022/05/18 02:38:44;;;;;;;6.63;2.30;;;7.90;99.90;;;;;;4932258;29;20098;-49
2022/05/18 02:41:09;;;;;;;6.95;2.55;;;8.00;99.90;;;;;;4931929;29;20024;-50
2022/05/18 02:43:38;;;;;;;8.52;2.13;;;7.90;99.90;;;;;;4934931;29;20252;-49
2022/05/18 02:46:05;;;;;;;8.10;2.25;;;8.00;99.90;;;;;;4935899;29;20027;-49
2022/05/18 02:48:31;;;;;;;6.65;1.98;;;7.90;99.90;;;;;;4935349;29;20023;-49
2022/05/18 02:50:56;;;;;;;8.20;2.20;;;8.00;99.90;;;;;;4935632;29;20040;-49
2022/05/18 02:53:22;;;;;;;9.48;2.38;;;7.80;99.90;;;;;;4935399;29;20103;-49
2022/05/18 02:56:06;;;;;;;7.05;2.17;;;7.90;99.90;;;;;;4935641;29;20055;-49
2022/05/18 02:58:44;;;;;;;8.40;2.22;;;7.90;99.90;;;;;;4934761;29;20417;-49
2022/05/18 03:01:12;;;;;;;7.57;3.05;;;7.70;99.90;;;;;;4935876;29;20110;-50
2022/05/18 03:03:39;;;;;;;5.70;2.28;;;7.80;99.90;;;;;;4917983;29;20050;-49
2022/05/18 03:06:08;;;;;;;6.10;2.20;;;7.90;99.90;;;;;;4934997;29;20052;-51
2022/05/18 03:08:36;;;;;;;13.45;2.47;;;7.80;99.90;;;;;;4935280;29;20032;-49
2022/05/18 03:11:03;;;;;;;7.10;2.20;;;7.80;99.90;;;;;;4935335;29;20034;-48
2022/05/18 03:13:29;;;;;;;4.93;2.00;;;7.80;99.90;;;;;;4934999;29;20042;-49
2022/05/18 03:15:55;;;;;;;6.32;3.17;;;7.80;99.90;;;;;;4935017;29;20035;-49
2022/05/18 03:18:21;;;;;;;7.22;2.40;;;7.80;99.90;;;;;;4934903;29;20050;-49
2022/05/18 03:23:34;;;;;;;7.00;2.72;;;7.80;99.90;;;;;;4934862;29;20574;-48
2022/05/18 03:26:09;;;;;;;5.43;2.15;;;7.80;99.90;;;;;;4935422;29;20032;-48
2022/05/18 03:28:36;;;;;;;9.57;2.63;;;7.70;99.90;;;;;;4934985;29;20035;-48
2022/05/18 03:31:03;;;;;;;6.13;2.50;;;7.80;99.90;;;;;;4934872;29;20396;-48
2022/05/18 03:33:29;;;;;;;8.85;2.60;;;7.70;99.90;;;;;;4934115;29;20083;-48
2022/05/18 03:35:55;;;;;;;6.60;2.63;;;7.70;99.90;;;;;;4934741;29;20086;-49
2022/05/18 03:38:21;;;;;;;5.88;2.53;;;7.80;99.90;;;;;;4934639;29;20110;-51
2022/05/18 03:40:47;;;;;;;10.30;2.65;;;7.60;99.90;;;;;;4934436;29;20039;-49
2022/05/18 03:43:13;;;;;;;8.60;2.72;;;7.70;99.90;;;;;;4934396;29;20027;-49
2022/05/18 03:45:39;;;;;;;7.18;2.65;;;7.70;99.90;;;;;;4934483;29;20460;-49
2022/05/18 03:48:06;;;;;;;7.93;2.50;;;7.70;99.90;;;;;;4934512;29;20066;-49
2022/05/18 03:50:33;;;;;;;7.68;2.70;;;7.60;99.90;;;;;;4934251;29;20047;-49
2022/05/18 03:53:00;;;;;;;9.57;2.30;;;7.60;99.90;;;;;;4933610;29;20039;-50
2022/05/18 03:55:26;;;;;;;8.23;2.58;;;7.60;99.90;;;;;;4934269;29;20090;-51
2022/05/18 03:57:52;;;;;;;9.05;3.67;;;7.70;99.90;;;;;;4934119;29;20171;-49
2022/05/18 04:00:18;;;;;;;12.93;3.40;;;7.70;99.90;;;;;;4934161;29;20550;-48
2022/05/18 04:02:47;;;;;;;8.23;2.78;;;7.80;99.90;;;;;;4934164;29;20070;-51
2022/05/18 04:05:14;;;;;;;7.90;2.92;;;7.90;99.90;;;;;;4934534;29;20034;-50
2022/05/18 04:07:40;;;;;;;8.20;2.58;;;7.80;99.90;;;;;;4934221;29;20044;-49
2022/05/18 04:10:07;;;;;;;7.40;2.92;;;7.90;99.90;;;;;;4933637;29;20051;-49
2022/05/18 04:12:34;;;;;;;;;;;7.90;99.90;;;;;;4934194;29;20713;-49
2022/05/18 04:15:00;;;;;;;26.23;3.90;;;7.90;99.90;;;;;;4934031;29;19911;-50
2022/05/18 04:17:26;;;;;;;14.57;2.95;;;7.80;99.90;;;;;;4933700;29;20076;-50
2022/05/18 04:19:53;;;;;;;11.60;3.38;;;7.80;99.90;;;;;;4933596;29;20373;-48
2022/05/18 04:22:19;;;;;;;7.47;2.78;;;8.00;99.90;;;;;;4933743;29;20031;-49
2022/05/18 04:24:44;;;;;;;12.25;2.65;;;8.00;99.90;;;;;;4934129;29;20075;-49
2022/05/18 04:27:13;;;;;;;8.65;2.50;;;8.00;99.90;;;;;;4933897;29;20035;-49
2022/05/18 04:29:39;;;;;;;8.35;2.90;;;8.00;99.90;;;;;;4933360;29;20539;-49
2022/05/18 04:32:05;;;;;;;8.80;3.85;;;8.10;99.90;;;;;;4933385;29;20039;-49
2022/05/18 04:34:31;;;;;;;13.63;3.05;;;8.20;99.90;;;;;;4933624;29;20024;-50
2022/05/18 04:36:57;;;;;;;9.20;3.05;;;8.20;99.90;;;;;;4933739;29;20040;-49
2022/05/18 04:39:23;;;;;;;10.75;2.90;;;8.30;99.90;;;;;;4933411;29;20395;-48
2022/05/18 04:41:48;;;;;;;9.90;4.32;;;8.30;99.90;;;;;;4933063;29;20111;-49
2022/05/18 04:44:14;;;;;;;13.50;3.25;;;8.40;99.90;;;;;;4933233;29;20063;-49
2022/05/18 04:46:40;;;;;;;9.70;2.85;;;8.50;99.90;;;;;;4933553;29;20039;-48
2022/05/18 04:49:06;;;;;;;11.77;3.22;;;8.40;99.90;;;;;;4932097;29;20032;-49
2022/05/18 04:51:33;;;;;;;11.02;3.42;;;8.40;99.90;;;;;;4932731;29;20110;-48
2022/05/18 04:53:58;;;;;;;13.03;2.70;;;8.40;99.90;;;;;;4933215;29;20050;-49
2022/05/18 04:56:24;;;;;;;9.75;3.05;;;8.50;99.90;;;;;;4916504;29;20479;-50
2022/05/18 04:58:51;;;;;;;11.07;3.08;;;8.50;99.90;;;;;;4933079;29;20551;-49
2022/05/18 05:01:17;;;;;;;8.57;3.00;;;8.60;99.90;;;;;;4932874;29;20045;-49
2022/05/18 05:03:43;;;;;;;10.63;3.50;;;8.60;99.90;;;;;;4932695;29;20032;-50
2022/05/18 05:06:09;;;;;;;8.10;3.33;;;8.50;99.90;;;;;;4932969;29;20126;-49
2022/05/18 05:08:37;;;;;;;13.45;5.93;;;8.70;99.90;;;;;;4932864;29;20698;-48
2022/05/18 05:11:04;;;;;;;12.85;3.17;;;8.70;99.90;;;;;;4933227;29;20607;-50
2022/05/18 05:13:30;;;;;;;12.13;3.22;;;8.70;99.90;;;;;;4932775;29;20043;-48
2022/05/18 05:16:02;;;;;;;13.70;3.30;;;8.80;99.90;;;;;;4933326;29;20036;-49
2022/05/18 05:18:27;;;;;;;11.20;3.65;;;8.90;99.90;;;;;;4932682;29;20043;-49
2022/05/18 05:20:53;;;;;;;12.50;4.20;;;9.00;99.90;;;;;;4932911;29;20091;-50
2022/05/18 05:23:20;;;;;;;16.60;3.65;;;9.10;99.90;;;;;;4932678;29;20500;-50
2022/05/18 05:25:46;;;;;;;14.70;3.55;;;9.10;99.90;;;;;;4932873;29;20032;-49
2022/05/18 05:28:12;;;;;;;16.17;3.90;;;9.20;99.90;;;;;;4932865;29;20035;-49
2022/05/18 05:30:38;;;;;;;17.33;3.63;;;9.30;99.90;;;;;;4932317;29;20047;-49
2022/05/18 05:33:04;;;;;;;9.20;3.03;;;9.40;99.90;;;;;;4932672;29;20028;-49
2022/05/18 05:35:29;;;;;;;8.55;3.05;;;9.40;99.90;;;;;;4932693;29;20020;-49
2022/05/18 05:37:56;;;;;;;13.32;3.20;;;9.40;99.90;;;;;;4932462;29;20518;-49
2022/05/18 05:40:23;;;;;;;8.60;3.20;;;9.40;99.90;;;;;;4932850;29;20090;-49
2022/05/18 05:42:48;;;;;;;10.57;2.53;;;9.50;99.90;;;;;;4932358;29;20126;-49
2022/05/18 05:45:14;;;;;;;7.60;2.63;;;9.60;99.90;;;;;;4932375;29;20098;-49
2022/05/18 05:47:40;;;;;;;10.50;2.55;;;9.60;99.90;;;;;;4932282;29;20032;-49
2022/05/18 05:50:07;;;;;;;8.95;2.83;;;9.60;99.90;;;;;;4932839;29;20039;-49
2022/05/18 05:52:32;;;;;;;8.63;2.60;;;9.70;99.90;;;;;;4932074;29;20032;-49
2022/05/18 05:54:59;;;;;;;8.80;2.35;;;9.80;99.90;;;;;;4932246;29;20095;-49
2022/05/18 05:57:26;;;;;;;8.40;2.53;;;9.80;99.90;;;;;;4932363;29;20031;-49
2022/05/18 05:59:51;;;;;;;6.40;2.40;;;9.90;99.90;;;;;;4932427;29;20063;-48
2022/05/18 06:02:17;;;;;;;8.05;2.13;;;10.00;99.90;;;;;;4932206;29;20035;-49
2022/05/18 06:04:43;;;;;;;9.25;1.98;;;10.00;99.90;;;;;;4932494;29;20688;-48
2022/05/18 06:07:09;;;;;;;24.33;3.17;;;10.10;99.90;;;;;;4932207;29;20050;-49
2022/05/18 06:09:35;;;;;;;8.48;2.28;;;10.10;99.90;;;;;;4932370;29;20464;-49
2022/05/18 06:12:02;;;;;;;5.45;1.75;;;10.20;99.90;;;;;;4932301;29;20114;-49
2022/05/18 06:14:27;;;;;;;10.73;2.28;;;10.20;99.90;;;;;;4932210;29;20060;-48
2022/05/18 06:16:53;;;;;;;9.95;2.50;;;10.30;99.40;;;;;;4933343;29;20055;-48
2022/05/18 06:19:19;;;;;;;6.93;2.00;;;10.30;98.30;;;;;;4936530;29;20043;-48
2022/05/18 06:21:47;;;;;;;7.22;2.05;;;10.40;99.30;;;;;;4935790;29;20039;-48
2022/05/18 06:24:15;;;;;;;8.32;2.42;;;10.40;99.00;;;;;;4936255;29;20101;-49
2022/05/18 06:26:41;;;;;;;10.30;2.20;;;10.50;97.50;;;;;;4936194;29;20051;-49
2022/05/18 06:29:07;;;;;;;7.45;2.40;;;10.60;97.90;;;;;;4936015;29;20058;-49
2022/05/18 06:31:32;;;;;;;10.73;1.40;;;10.70;96.20;;;;;;4935673;29;20051;-49
2022/05/18 06:33:58;;;;;;;8.90;2.42;;;10.60;94.10;;;;;;4935480;29;20043;-49
2022/05/18 06:36:24;;;;;;;4.55;1.60;;;10.70;95.20;;;;;;4935976;29;20082;-49
2022/05/18 06:38:50;;;;;;;8.10;2.80;;;10.70;94.10;;;;;;4935679;29;20040;-49
2022/05/18 06:41:21;;;;;;;6.88;1.60;;;10.80;95.00;;;;;;4935831;29;20035;-49
2022/05/18 06:43:55;;;;;;;10.13;1.80;;;10.80;92.40;;;;;;4934977;29;20060;-49
2022/05/18 06:46:22;;;;;;;6.97;1.73;;;10.90;92.50;;;;;;4935707;29;20027;-49
2022/05/18 06:48:48;;;;;;;9.60;1.63;;;11.00;92.10;;;;;;4935831;29;20070;-49
2022/05/18 06:51:21;;;;;;;5.40;1.85;;;11.00;90.30;;;;;;4935997;29;20028;-49
2022/05/18 06:53:51;;;;;;;15.25;3.47;;;11.10;90.20;;;;;;4934875;29;20028;-49
2022/05/18 06:56:19;;;;;;;8.88;2.55;;;11.10;90.60;;;;;;4935485;29;20023;-50
2022/05/18 06:58:46;;;;;;;14.05;2.55;;;11.40;93.40;;;;;;4935246;29;20028;-49
2022/05/18 07:01:12;;;;;;;6.07;1.98;;;11.40;90.50;;;;;;4935135;29;20066;-49
2022/05/18 07:03:39;;;;;;;7.60;1.80;;;11.50;91.50;;;;;;4934540;29;20059;-49
2022/05/18 07:06:06;;;;;;;10.70;1.77;;;11.50;90.60;;;;;;4918314;29;20071;-48
2022/05/18 07:08:31;;;;;;;10.23;2.08;;;11.60;90.10;;;;;;4935334;29;20040;-50
2022/05/18 07:10:57;;;;;;;4.78;1.83;;;11.70;85.10;;;;;;4935649;29;20106;-49
2022/05/18 07:13:23;;;;;;;6.70;1.63;;;11.60;85.00;;;;;;4934662;29;20684;-49
2022/05/18 07:15:49;;;;;;;11.50;1.92;;;11.90;90.90;;;;;;4935450;29;20059;-50
2022/05/18 07:18:19;;;;;;;8.38;1.88;;;12.00;90.80;;;;;;4934842;29;20439;-50
2022/05/18 07:20:45;;;;;;;7.00;1.80;;;12.00;90.20;;;;;;4935010;29;20455;-49
2022/05/18 07:23:11;;;;;;;7.60;1.90;;;12.10;83.90;;;;;;4932991;29;20123;-50
2022/05/18 07:25:37;;;;;;;12.50;2.50;;;11.90;80.20;;;;;;4935168;29;20475;-49
2022/05/18 07:28:03;;;;;;;6.07;1.95;;;12.10;85.10;;;;;;4941593;28;20039;-49
2022/05/18 07:30:29;;;;;;;7.88;1.80;;;12.20;85.40;;;;;;4950723;29;20105;-50
2022/05/18 07:32:54;;;;;;;8.05;2.17;;;12.20;80.30;;;;;;4953481;28;20038;-49
2022/05/18 07:35:20;;;;;;;16.48;2.13;;;12.20;80.50;;;;;;4947163;29;20034;-49
2022/05/18 07:37:46;;;;;;;9.10;2.15;;;12.00;74.90;;;;;;4934572;29;20491;-49
2022/05/18 07:40:12;;;;;;;9.18;2.30;;;12.10;79.60;;;;;;4934620;29;20032;-49
2022/05/18 07:42:38;;;;;;;11.65;2.65;;;12.40;82.30;;;;;;4933786;29;20031;-49
2022/05/18 07:45:06;;;;;;;6.60;2.22;;;12.60;81.70;;;;;;4934784;29;20035;-49
2022/05/18 07:47:32;;;;;;;;;;;12.80;80.60;;;;;;4934567;29;20472;-49
2022/05/18 07:49:58;;;;;;;10.82;2.30;;;12.90;81.50;;;;;;4934516;29;19907;-49
2022/05/18 07:52:25;;;;;;;6.53;2.33;;;12.90;77.40;;;;;;4933672;29;20032;-49
2022/05/18 07:54:51;;;;;;;10.83;2.37;;;13.00;78.30;;;;;;4934404;29;20098;-49
2022/05/18 07:57:17;;;;;;;6.93;2.25;;;13.20;81.80;;;;;;4934341;29;20361;-49
2022/05/18 07:59:44;;;;;;;8.07;2.47;;;13.40;71.60;;;;;;4934320;29;20142;-49
2022/05/18 08:02:09;;;;;;;10.43;2.10;;;13.30;70.20;;;;;;4933704;29;20031;-49
2022/05/18 08:04:35;;;;;;;9.27;2.38;;;13.20;66.70;;;;;;4933749;29;20341;-49
2022/05/18 08:07:01;;;;;;;4.97;1.42;;;13.40;67.20;;;;;;4934132;29;20127;-50
2022/05/18 08:09:27;;;;;;;8.85;1.65;;;13.50;59.90;;;;;;4933753;29;20032;-49
2022/05/18 08:17:22;;;;;;;7.65;1.65;;;14.10;58.40;;;;;;4945354;29;20058;-49
2022/05/18 08:19:48;;;;;;;5.45;1.52;;;14.00;53.70;;;;;;4945616;29;20043;-50
2022/05/18 08:22:16;;;;;;;9.35;1.73;;;14.00;56.70;;;;;;4939440;29;20034;-50
2022/05/18 08:24:42;;;;;;;9.43;1.75;;;14.10;54.90;;;;;;4944492;29;20042;-51
2022/05/18 08:27:14;;;;;;;7.40;2.20;;;14.10;57.70;;;;;;4950800;29;20023;-51
2022/05/18 08:29:40;;;;;;;6.53;1.65;;;14.10;54.60;;;;;;4950180;29;20033;-49
2022/05/18 08:32:06;;;;;;;8.80;1.98;;;14.10;53.90;;;;;;4945119;29;20031;-49
2022/05/18 08:34:33;;;;;;;7.50;1.45;;;14.00;54.20;;;;;;4950247;29;20058;-50
2022/05/18 08:37:00;;;;;;;4.50;1.08;;;14.30;56.20;;;;;;4936976;29;20038;-49
2022/05/18 08:39:26;;;;;;;5.03;1.40;;;14.40;53.50;;;;;;4941395;28;20051;-49
2022/05/18 08:41:52;;;;;;;9.13;1.50;;;14.50;54.80;;;;;;4946338;29;20039;-49
2022/05/18 08:44:32;;;;;;;5.65;1.60;;;14.80;53.20;;;;;;4951681;29;20027;-50
2022/05/18 08:47:25;;;;;;;11.07;2.10;;;15.00;52.70;;;;;;4951827;29;20391;-48
2022/05/18 08:50:03;;;;;;;9.25;1.60;;;14.90;50.10;;;;;;4944651;28;20039;-50
2022/05/18 08:52:35;;;;;;;7.57;1.67;;;15.00;52.50;;;;;;4950838;29;20035;-50
2022/05/18 08:55:54;;;;;;;5.60;1.85;;;15.10;50.40;;;;;;4935237;29;20550;-49
2022/05/18 08:58:29;;;;;;;4.57;1.30;;;15.40;53.50;;;;;;4872110;29;20482;-50
2022/05/18 09:01:09;;;;;;;210.90;144.05;;;15.60;53.00;;;;;;4940927;29;20046;-50
2022/05/18 09:03:40;;;;;;;12.00;4.90;;;16.00;50.90;;;;;;4946205;29;20026;-50
2022/05/18 09:06:09;;;;;;;8.70;1.75;;;16.10;48.50;;;;;;4945587;29;20059;-51
2022/05/18 09:08:44;;;;;;;7.80;1.55;;;16.10;48.10;;;;;;4942244;29;20027;-49
2022/05/18 09:11:19;;;;;;;3.90;1.08;;;16.20;49.90;;;;;;4941134;29;20039;-50
2022/05/18 09:13:45;;;;;;;4.95;1.05;;;16.10;45.50;;;;;;4942756;29;20379;-48
2022/05/18 09:16:24;;;;;;;6.68;1.70;;;16.00;50.10;;;;;;4940052;28;20035;-52
2022/05/18 09:19:07;;;;;;;13.70;2.00;;;16.10;49.70;;;;;;4941831;29;20491;-50
2022/05/18 09:21:39;;;;;;;7.20;1.25;;;16.00;45.30;;;;;;4942428;28;20027;-51
2022/05/18 09:24:27;;;;;;;5.68;1.40;;;16.20;51.90;;;;;;4946599;29;20034;-48
2022/05/18 09:27:04;;;;;;;7.22;1.00;;;16.00;45.00;;;;;;4939527;29;20058;-48
2022/05/18 09:29:41;;;;;;;6.15;1.00;;;16.00;47.70;;;;;;4945848;29;20038;-49
2022/05/18 09:32:22;;;;;;;4.03;1.05;;;16.30;46.70;;;;;;4945222;29;21002;-49
2022/05/18 09:35:12;;;;;;;4.13;0.65;;;16.30;47.60;;;;;;4947888;29;20423;-49
2022/05/18 09:38:13;;;;;;;5.70;0.98;;;16.70;44.80;;;;;;4945274;29;20078;-48
2022/05/18 09:40:47;;;;;;;2.72;1.10;;;17.50;48.80;;;;;;4938708;29;20480;-50
2022/05/18 09:43:17;;;;;;;9.68;1.13;;;17.40;46.70;;;;;;4936867;29;20039;-49
2022/05/18 09:45:47;;;;;;;5.45;1.10;;;17.40;44.00;;;;;;4932643;29;20038;-51
2022/05/18 09:48:15;;;;;;;9.43;1.20;;;17.50;44.70;;;;;;4932041;29;20115;-53
2022/05/18 09:50:44;;;;;;;5.78;0.70;;;17.60;45.30;;;;;;4933875;29;20571;-50
2022/05/18 09:53:11;;;;;;;2.75;0.95;;;17.80;44.30;;;;;;4937617;29;20027;-51
2022/05/18 09:55:37;;;;;;;3.77;0.73;;;17.80;46.10;;;;;;4947584;29;20042;-50
2022/05/18 09:58:32;;;;;;;6.53;0.95;;;18.00;45.50;;;;;;4936738;29;20366;-50
2022/05/18 10:09:42;;;;;;;4.95;0.77;;;18.60;41.20;;;;;;4938257;29;20058;-51
2022/05/18 10:12:22;;;;;;;4.10;0.85;;;18.60;42.40;;;;;;4939524;29;20435;-52
2022/05/18 10:14:51;;;;;;;6.47;2.00;;;18.50;42.70;;;;;;4913434;29;20378;-51
2022/05/18 10:17:21;;;;;;;6.50;1.33;;;18.70;41.60;;;;;;4918348;29;20391;-52
2022/05/18 10:20:00;;;;;;;3.00;0.75;;;18.40;38.80;;;;;;4942040;29;20486;-51
2022/05/18 10:22:30;;;;;;;7.05;1.00;;;17.60;39.30;;;;;;4942696;29;20027;-52
2022/05/18 10:25:06;;;;;;;5.47;0.90;;;17.80;42.20;;;;;;4939910;29;20038;-51
2022/05/18 10:27:44;;;;;;;2.65;0.77;;;18.30;42.50;;;;;;4937866;29;20035;-51
2022/05/18 10:30:34;;;;;;;6.03;1.60;;;18.50;40.80;;;;;;4937405;29;20087;-51
2022/05/18 10:33:23;;;;;;;3.60;1.00;;;18.80;41.40;;;;;;4940410;29;20859;-50
2022/05/18 10:35:50;;;;;;;;;;;18.90;42.90;;;;;;4950941;29;20047;-51
2022/05/18 10:38:18;;;;;;;3.13;0.80;;;19.10;42.00;;;;;;4940501;29;19990;-51
2022/05/18 10:40:45;;;;;;;5.88;1.17;;;18.80;37.50;;;;;;4931468;29;20063;-53
2022/05/18 10:43:29;;;;;;;5.28;1.17;;;18.70;39.90;;;;;;4931378;29;20046;-50
2022/05/18 10:45:57;;;;;;;2.97;0.93;;;18.90;40.60;;;;;;4931772;29;20035;-50
2022/05/18 10:48:27;;;;;;;5.40;1.38;;;19.20;41.80;;;;;;4950366;29;20035;-50
2022/05/18 10:51:12;;;;;;;7.78;1.20;;;18.60;37.40;;;;;;4949127;29;20035;-50
2022/05/18 10:53:44;;;;;;;5.13;1.58;;;19.30;39.60;;;;;;4950496;29;20495;-51
2022/05/18 10:56:35;;;;;;;6.38;1.23;;;19.70;43.00;;;;;;4942610;29;20039;-51
2022/05/18 10:59:21;;;;;;;4.55;1.33;;;20.10;44.20;;;;;;4950389;29;20439;-51
2022/05/18 11:02:24;;;;;;;7.65;1.52;;;20.30;40.50;;;;;;4950717;28;20598;-52
2022/05/18 11:04:57;;;;;;;5.68;1.20;;;20.40;42.50;;;;;;4925586;28;20039;-50
2022/05/18 11:07:26;;;;;;;11.38;1.70;;;20.70;37.30;;;;;;4954606;29;20054;-52
2022/05/18 11:09:52;;;;;;;14.93;2.70;;;20.00;37.60;;;;;;4952950;28;20450;-50
2022/05/18 11:12:26;;;;;;;5.50;1.88;;;19.60;36.70;;;;;;4954225;29;20048;-51
2022/05/18 11:15:03;;;;;;;7.85;1.23;;;19.20;37.80;;;;;;4935574;29;20034;-51
2022/05/18 11:17:34;;;;;;;6.20;1.38;;;18.70;37.20;;;;;;4934411;29;20059;-53
2022/05/18 11:20:15;;;;;;;4.05;1.17;;;19.10;39.10;;;;;;4935183;29;20475;-51
2022/05/18 11:22:40;;;;;;;7.40;1.20;;;19.20;37.30;;;;;;4934653;29;20032;-51
2022/05/18 11:25:24;;;;;;;7.22;1.58;;;19.40;39.60;;;;;;4934750;29;20042;-51
2022/05/18 11:27:55;;;;;;;8.07;1.55;;;19.90;40.70;;;;;;4934721;29;20059;-51
2022/05/18 11:30:57;;;;;;;7.50;1.50;;;20.20;40.20;;;;;;4934719;29;20024;-50
2022/05/18 11:34:04;;;;;;;5.07;1.45;;;20.00;36.50;;;;;;4894219;29;20032;-52
2022/05/18 11:36:43;;;;;;;7.55;1.75;;;20.30;39.70;;;;;;4857152;29;20044;-51
2022/05/18 11:39:30;;;;;;;5.25;1.85;;;20.80;41.70;;;;;;4925363;29;20071;-50
2022/05/18 11:42:07;;;;;;;7.30;1.40;;;20.90;38.10;;;;;;4935146;29;20054;-50
2022/05/18 11:44:51;;;;;;;5.15;1.60;;;20.90;37.60;;;;;;4934613;29;20539;-50
2022/05/18 11:47:25;;;;;;;4.93;1.52;;;20.80;36.00;;;;;;4934475;29;20039;-51
2022/05/18 11:50:03;;;;;;;8.10;1.48;;;20.70;37.50;;;;;;4934655;29;20039;-51
2022/05/18 11:52:32;;;;;;;;;;;20.60;36.40;;;;;;4935054;29;20608;-50
2022/05/18 11:55:17;;;;;;;6.80;1.10;;;20.70;36.90;;;;;;4934590;29;19906;-52
2022/05/18 11:57:58;;;;;;;4.32;1.20;;;21.00;37.70;;;;;;4934095;29;20111;-51
2022/05/18 12:00:49;;;;;;;4.63;1.10;;;21.40;40.70;;;;;;4933318;29;20134;-51
2022/05/18 12:03:38;;;;;;;7.93;1.73;;;21.20;36.80;;;;;;5177202;23;20311;-51
2022/05/18 12:06:41;;;;;;;4.53;1.30;;;20.70;36.10;;;;;;4979577;28;20041;-51
2022/05/18 12:09:24;;;;;;;4.88;2.03;;;20.50;36.00;;;;;;4990707;28;20025;-51
2022/05/18 12:12:09;;;;;;;7.32;1.38;;;20.30;36.00;;;;;;4989356;28;20042;-51
2022/05/18 12:14:45;;;;;;;10.57;1.50;;;20.60;36.50;;;;;;4987900;28;20708;-52
2022/05/18 12:17:23;;;;;;;7.22;1.60;;;20.50;36.80;;;;;;4988612;28;20022;-50
2022/05/18 12:20:18;;;;;;;8.60;1.42;;;21.00;38.50;;;;;;4989116;28;20034;-50
2022/05/18 12:22:50;;;;;;;8.38;1.42;;;20.70;36.60;;;;;;4973081;28;20039;-50
2022/05/18 12:25:20;;;;;;;4.55;1.25;;;20.20;36.00;;;;;;4990446;28;20023;-50
2022/05/18 12:27:47;;;;;;;11.75;1.90;;;20.30;37.20;;;;;;4991405;28;20113;-51
2022/05/18 12:30:17;;;;;;;5.18;1.50;;;20.30;36.10;;;;;;4992105;28;20031;-52
2022/05/18 12:32:45;;;;;;;4.65;1.80;;;20.40;37.70;;;;;;4992111;28;20037;-51
2022/05/18 12:35:36;;;;;;;8.77;1.30;;;20.70;36.50;;;;;;4992059;28;20714;-52
2022/05/18 12:38:12;;;;;;;7.60;1.00;;;20.80;35.30;;;;;;4992002;28;20693;-51
2022/05/18 12:40:53;;;;;;;7.65;1.55;;;21.10;35.70;;;;;;4972125;28;20038;-52
2022/05/18 12:43:26;;;;;;;7.57;1.52;;;21.20;35.90;;;;;;4972119;28;20050;-49
2022/05/18 12:46:08;;;;;;;3.33;1.55;;;21.30;36.60;;;;;;4982901;28;20116;-51
2022/05/18 12:48:34;;;;;;;5.10;1.27;;;21.30;36.00;;;;;;4990536;28;20034;-52
2022/05/18 12:51:08;;;;;;;7.68;1.30;;;21.40;37.80;;;;;;4991102;28;20363;-51
2022/05/18 12:53:49;;;;;;;7.97;1.52;;;21.70;39.70;;;;;;4990458;28;20093;-52
2022/05/18 12:56:20;;;;;;;6.60;1.45;;;22.20;36.30;;;;;;4989465;28;20418;-51
2022/05/18 12:58:59;;;;;;;7.68;1.48;;;22.30;36.20;;;;;;4971617;28;20051;-53
2022/05/18 13:01:28;;;;;;;6.95;2.30;;;22.50;38.50;;;;;;4972128;28;20117;-51
2022/05/18 13:04:05;;;;;;;6.75;1.40;;;22.80;38.10;;;;;;4971657;28;20101;-52
2022/05/18 13:06:31;;;;;;;10.10;1.27;;;23.20;36.90;;;;;;4981098;28;20474;-51
2022/05/18 13:09:22;;;;;;;14.43;11.80;;;23.10;35.90;;;;;;4991076;28;20026;-51
2022/05/18 13:12:23;;;;;;;9.43;2.58;;;22.90;35.70;;;;;;4971938;28;20042;-50
2022/05/18 13:15:07;;;;;;;12.70;3.05;;;22.50;34.00;;;;;;4991316;28;20033;-52
2022/05/18 13:17:56;;;;;;;9.48;2.08;;;21.50;34.50;;;;;;4988051;28;20050;-52
2022/05/18 13:20:22;;;;;;;7.90;1.50;;;21.30;35.00;;;;;;4988677;28;20034;-50
2022/05/18 13:23:19;;;;;;;5.90;1.75;;;21.60;35.00;;;;;;4990170;28;20038;-51
2022/05/18 13:25:51;;;;;;;11.32;1.90;;;21.60;35.30;;;;;;4989745;28;20045;-51
2022/05/18 13:28:18;;;;;;;7.93;1.50;;;21.40;34.10;;;;;;4990470;28;20024;-51